Time;durP1;ratioP1;P1;durP2;ratioP2;P2;SDS_P1;SDS_P2;PMS_P1;PMS_P2;Temp;Humidity;BMP_temperature;BMP_pressure;BME280_temperature;BME280_humidity;BME280_pressure;Samples;Min_cycle;Max_cycle;Signal;HPM_P1;HPM_P2
2020/12/11 00:02:06;;;;;;;19.02;15.35;;;3.60;99.90;;;;;;5000118;28;20068;-72
2020/12/11 00:04:32;;;;;;;17.15;14.70;;;3.60;99.90;;;;;;5006937;28;20054;-73
2020/12/11 00:06:58;;;;;;;22.33;16.70;;;3.60;99.90;;;;;;5002213;28;20033;-71
2020/12/11 00:09:25;;;;;;;17.65;14.30;;;3.70;99.90;;;;;;5004895;28;20029;-73
2020/12/11 00:11:51;;;;;;;15.90;14.25;;;3.60;99.90;;;;;;4997113;28;20030;-72
2020/12/11 00:14:17;;;;;;;15.48;13.23;;;3.60;99.90;;;;;;5000705;28;20456;-73
2020/12/11 00:16:43;;;;;;;14.60;13.02;;;3.60;99.90;;;;;;5007619;28;20084;-72
2020/12/11 00:19:09;;;;;;;14.23;12.73;;;3.60;99.90;;;;;;5002681;28;20481;-72
2020/12/11 00:21:40;;;;;;;15.57;13.90;;;3.60;99.90;;;;;;5000596;28;20057;-73
2020/12/11 00:24:05;;;;;;;15.70;14.00;;;3.60;99.90;;;;;;4997622;28;20362;-72
2020/12/11 00:26:31;;;;;;;16.48;14.18;;;3.60;99.90;;;;;;5000451;28;20334;-74
2020/12/11 00:28:57;;;;;;;17.42;13.95;;;3.50;99.90;;;;;;5006480;28;20521;-74
2020/12/11 00:31:24;;;;;;;14.45;12.90;;;3.60;99.90;;;;;;5003111;28;20485;-72
2020/12/11 00:33:49;;;;;;;14.65;13.10;;;3.50;99.90;;;;;;5001697;28;20449;-71
2020/12/11 00:36:15;;;;;;;16.35;13.88;;;3.60;99.90;;;;;;5009081;28;20037;-74
2020/12/11 00:38:40;;;;;;;16.08;14.30;;;3.50;99.90;;;;;;5000782;28;20335;-71
2020/12/11 00:41:06;;;;;;;13.57;12.20;;;3.50;99.90;;;;;;5004036;28;20500;-71
2020/12/11 00:43:31;;;;;;;13.55;11.48;;;3.60;99.90;;;;;;5004122;28;20497;-73
2020/12/11 00:45:57;;;;;;;16.20;14.48;;;3.50;99.90;;;;;;5006225;28;20519;-72
2020/12/11 00:48:22;;;;;;;14.45;12.52;;;3.50;99.90;;;;;;5002397;28;20385;-72
2020/12/11 00:50:48;;;;;;;14.05;12.65;;;3.50;99.90;;;;;;5000415;28;20474;-71
2020/12/11 00:53:14;;;;;;;13.52;12.13;;;3.60;99.90;;;;;;5000556;28;20438;-72
2020/12/11 00:55:39;;;;;;;13.85;12.45;;;3.60;99.90;;;;;;5005441;28;20044;-71
2020/12/11 00:58:05;;;;;;;12.40;11.13;;;3.50;99.90;;;;;;5013054;28;20485;-72
2020/12/11 01:00:30;;;;;;;12.63;11.32;;;3.60;99.90;;;;;;5024724;28;20078;-72
2020/12/11 01:02:56;;;;;;;12.90;11.70;;;3.50;99.90;;;;;;5011945;28;20378;-71
2020/12/11 01:05:21;;;;;;;13.40;12.02;;;3.40;99.90;;;;;;5011064;28;20030;-72
2020/12/11 01:07:47;;;;;;;12.00;10.82;;;3.40;99.90;;;;;;4999809;28;20030;-72
2020/12/11 01:10:12;;;;;;;11.93;10.73;;;3.40;99.90;;;;;;5003079;28;20035;-72
2020/12/11 01:12:38;;;;;;;10.57;9.52;;;3.40;99.90;;;;;;5004660;28;20029;-72
2020/12/11 01:15:04;;;;;;;10.80;9.70;;;3.30;99.90;;;;;;5000394;28;20035;-73
2020/12/11 01:17:29;;;;;;;11.05;9.98;;;3.30;99.90;;;;;;5007418;28;20050;-73
2020/12/11 01:19:55;;;;;;;11.48;10.27;;;3.30;99.90;;;;;;5002847;28;20084;-72
2020/12/11 01:22:21;;;;;;;11.48;10.27;;;3.30;99.90;;;;;;5002554;28;20019;-73
2020/12/11 01:24:46;;;;;;;10.93;9.80;;;3.30;99.90;;;;;;5005942;28;20120;-72
2020/12/11 01:27:12;;;;;;;11.35;10.15;;;3.30;99.90;;;;;;5011860;28;20030;-73
2020/12/11 01:29:38;;;;;;;12.27;10.52;;;3.30;99.90;;;;;;5013364;28;20026;-72
2020/12/11 01:32:03;;;;;;;9.73;8.77;;;3.20;99.90;;;;;;5009003;28;20029;-73
2020/12/11 01:34:29;;;;;;;11.00;9.90;;;3.30;99.90;;;;;;4999393;28;20085;-73
2020/12/11 01:36:54;;;;;;;9.00;8.13;;;3.20;99.90;;;;;;5008995;28;20537;-73
2020/12/11 01:39:20;;;;;;;10.75;9.65;;;3.20;99.90;;;;;;5014462;28;20409;-71
2020/12/11 01:41:50;;;;;;;12.95;9.70;;;3.20;99.90;;;;;;5013074;28;20064;-71
2020/12/11 01:44:17;;;;;;;11.15;9.95;;;3.10;99.90;;;;;;5002439;28;20113;-71
2020/12/11 01:46:43;;;;;;;11.63;10.48;;;3.10;99.90;;;;;;4999640;28;20440;-72
2020/12/11 01:49:11;;;;;;;11.05;9.93;;;2.90;99.90;;;;;;5005936;28;20068;-72
2020/12/11 01:51:37;;;;;;;11.55;10.45;;;2.90;99.90;;;;;;5004235;28;20076;-72
2020/12/11 01:54:04;;;;;;;11.32;10.18;;;2.80;99.90;;;;;;5011425;28;20030;-72
2020/12/11 01:56:33;;;;;;;15.15;10.80;;;2.80;99.90;;;;;;5020619;28;20380;-73
2020/12/11 01:59:04;;;;;;;11.43;10.32;;;2.80;99.90;;;;;;4995088;28;20030;-73
2020/12/11 02:01:34;;;;;;;11.45;10.25;;;2.70;99.90;;;;;;4998665;28;20058;-72
2020/12/11 02:04:00;;;;;;;11.38;10.20;;;2.70;99.90;;;;;;5004293;28;20389;-72
2020/12/11 02:06:26;;;;;;;12.23;10.43;;;2.70;99.90;;;;;;5004514;28;20025;-71
2020/12/11 02:08:56;;;;;;;11.43;10.32;;;2.80;99.90;;;;;;4996588;28;20109;-73
2020/12/11 02:11:23;;;;;;;11.27;9.73;;;2.70;99.90;;;;;;5007803;28;20049;-73
2020/12/11 02:13:49;;;;;;;11.52;10.32;;;2.70;99.90;;;;;;5017146;28;20042;-71
2020/12/11 02:16:23;;;;;;;12.40;10.88;;;2.70;99.90;;;;;;5009945;28;20569;-71
2020/12/11 02:18:49;;;;;;;12.02;10.82;;;2.70;99.90;;;;;;5004015;28;20037;-72
2020/12/11 02:21:16;;;;;;;13.38;10.93;;;2.60;99.90;;;;;;4995669;28;20106;-71
2020/12/11 02:23:45;;;;;;;13.15;11.38;;;2.60;99.90;;;;;;4995649;28;20072;-73
2020/12/11 02:26:12;;;;;;;14.13;12.25;;;2.60;99.90;;;;;;5006992;28;20030;-71
2020/12/11 02:28:37;;;;;;;12.10;10.73;;;2.50;99.90;;;;;;5002480;28;20548;-72
2020/12/11 02:31:04;;;;;;;11.45;10.25;;;2.50;99.90;;;;;;5018696;28;20042;-72
2020/12/11 02:33:30;;;;;;;13.38;11.10;;;2.50;99.90;;;;;;5008908;28;20109;-72
2020/12/11 02:35:56;;;;;;;11.57;10.43;;;2.40;99.90;;;;;;5005045;28;20030;-71
2020/12/11 02:38:22;;;;;;;11.93;10.65;;;2.50;99.90;;;;;;5005243;28;20432;-71
2020/12/11 02:40:53;;;;;;;13.10;10.88;;;2.40;99.90;;;;;;4996313;28;20037;-72
2020/12/11 02:43:18;;;;;;;;;;;2.40;99.90;;;;;;5016981;28;20026;-72
2020/12/11 02:45:46;;;;;;;11.88;10.45;;;2.40;99.90;;;;;;5017913;28;19909;-71
2020/12/11 02:48:13;;;;;;;12.55;11.10;;;2.40;99.90;;;;;;5005681;28;20034;-71
2020/12/11 02:50:39;;;;;;;12.32;11.07;;;2.30;99.90;;;;;;5014228;28;20548;-73
2020/12/11 02:53:04;;;;;;;12.40;11.10;;;2.30;99.90;;;;;;4997194;28;20102;-72
2020/12/11 02:55:30;;;;;;;13.30;12.02;;;2.30;99.90;;;;;;5006187;28;20030;-73
2020/12/11 02:57:56;;;;;;;12.80;11.48;;;2.30;99.90;;;;;;5022617;28;20021;-72
2020/12/11 03:00:21;;;;;;;13.25;11.43;;;2.30;99.90;;;;;;5004825;28;20233;-72
2020/12/11 03:02:47;;;;;;;13.52;11.90;;;2.30;99.90;;;;;;4994674;28;20521;-73
2020/12/11 03:05:12;;;;;;;13.85;11.75;;;2.30;99.90;;;;;;4994622;28;20034;-71
2020/12/11 03:07:38;;;;;;;12.15;10.90;;;2.30;99.90;;;;;;4994241;28;20109;-71
2020/12/11 03:10:04;;;;;;;15.95;12.02;;;2.30;99.90;;;;;;4994442;28;20473;-71
2020/12/11 03:12:29;;;;;;;14.52;11.45;;;2.30;99.90;;;;;;4994131;28;20484;-72
2020/12/11 03:14:55;;;;;;;14.75;13.05;;;2.20;99.90;;;;;;4994092;28;20038;-73
2020/12/11 03:17:20;;;;;;;15.52;13.65;;;2.30;99.90;;;;;;4994383;28;20633;-71
2020/12/11 03:19:46;;;;;;;13.45;12.07;;;2.20;99.90;;;;;;4994410;28;20030;-72
2020/12/11 03:22:12;;;;;;;15.00;13.35;;;2.20;99.90;;;;;;4994715;28;20030;-73
2020/12/11 03:24:37;;;;;;;15.95;14.18;;;2.20;99.90;;;;;;5007157;28;20394;-71
2020/12/11 03:27:03;;;;;;;15.13;12.82;;;2.10;99.90;;;;;;4994490;28;20108;-71
2020/12/11 03:29:28;;;;;;;16.17;14.02;;;2.20;99.90;;;;;;4994326;28;20026;-71
2020/12/11 03:31:54;;;;;;;14.07;12.48;;;2.10;99.90;;;;;;4994189;28;20548;-72
2020/12/11 03:34:19;;;;;;;13.95;12.32;;;2.10;99.90;;;;;;5009371;28;20037;-71
2020/12/11 03:36:48;;;;;;;13.80;12.35;;;2.10;99.90;;;;;;5029838;28;20544;-71
2020/12/11 03:39:14;;;;;;;14.07;11.95;;;2.10;99.90;;;;;;4996650;28;20022;-70
2020/12/11 03:41:39;;;;;;;15.27;13.65;;;2.10;99.90;;;;;;4994255;28;20483;-71
2020/12/11 03:44:05;;;;;;;17.48;13.25;;;2.10;99.90;;;;;;4994219;28;20038;-72
2020/12/11 03:46:31;;;;;;;17.63;14.15;;;2.00;99.90;;;;;;4994107;28;20045;-71
2020/12/11 03:48:57;;;;;;;15.88;13.45;;;2.00;99.90;;;;;;4996484;28;20045;-70
2020/12/11 03:51:23;;;;;;;15.82;14.02;;;2.00;99.90;;;;;;5003659;28;20039;-72
2020/12/11 03:53:49;;;;;;;17.35;14.00;;;2.00;99.90;;;;;;4994136;28;20041;-71
2020/12/11 03:56:16;;;;;;;18.23;15.10;;;1.90;99.90;;;;;;5006402;28;20365;-73
2020/12/11 03:58:42;;;;;;;16.77;14.07;;;1.90;99.90;;;;;;4995627;28;20030;-73
2020/12/11 04:01:11;;;;;;;17.35;14.27;;;1.80;99.90;;;;;;4995865;28;20033;-73
2020/12/11 04:03:37;;;;;;;17.63;15.00;;;1.80;99.90;;;;;;5006329;28;20056;-72
2020/12/11 04:06:08;;;;;;;18.23;13.90;;;1.90;99.90;;;;;;5007907;28;20030;-72
2020/12/11 04:08:35;;;;;;;18.48;14.23;;;1.90;99.90;;;;;;5004080;28;20031;-72
2020/12/11 04:11:05;;;;;;;19.73;14.90;;;1.90;99.90;;;;;;4996686;28;20411;-73
2020/12/11 04:13:31;;;;;;;19.15;15.23;;;1.80;99.90;;;;;;4993825;28;20026;-72
2020/12/11 04:15:57;;;;;;;18.23;15.00;;;1.80;99.90;;;;;;5005760;28;20117;-72
2020/12/11 04:18:22;;;;;;;20.20;16.73;;;1.80;99.90;;;;;;4993471;28;20637;-71
2020/12/11 04:20:48;;;;;;;18.75;14.80;;;1.90;99.90;;;;;;4993958;28;20023;-72
2020/12/11 04:23:13;;;;;;;16.58;14.25;;;1.80;99.90;;;;;;4992845;28;20401;-72
2020/12/11 04:25:39;;;;;;;21.48;16.20;;;1.90;99.90;;;;;;4993428;28;20034;-74
2020/12/11 04:28:04;;;;;;;19.98;15.80;;;1.80;99.90;;;;;;4993962;28;20085;-72
2020/12/11 04:30:30;;;;;;;20.63;16.33;;;1.80;99.90;;;;;;5008455;28;20041;-72
2020/12/11 04:32:56;;;;;;;21.17;15.07;;;1.80;99.90;;;;;;4993975;28;20042;-72
2020/12/11 04:35:21;;;;;;;18.27;15.13;;;1.80;99.90;;;;;;5021427;28;20026;-71
2020/12/11 04:37:47;;;;;;;20.88;15.95;;;1.70;99.90;;;;;;5007976;28;20034;-71
2020/12/11 04:40:15;;;;;;;18.58;15.27;;;1.70;99.90;;;;;;5002067;28;20081;-72
2020/12/11 04:42:44;;;;;;;18.40;15.30;;;1.70;99.90;;;;;;4999161;28;20025;-72
2020/12/11 04:45:10;;;;;;;18.48;15.18;;;1.70;99.90;;;;;;5001822;28;20062;-72
2020/12/11 04:47:36;;;;;;;20.30;15.40;;;1.70;99.90;;;;;;4993016;28;20062;-72
2020/12/11 04:50:02;;;;;;;19.20;14.77;;;1.70;99.90;;;;;;4993323;28;20176;-71
2020/12/11 04:52:34;;;;;;;20.25;15.50;;;1.60;99.90;;;;;;5006020;28;20030;-72
2020/12/11 04:55:01;;;;;;;19.00;14.82;;;1.60;99.90;;;;;;5008314;28;20037;-72
2020/12/11 04:57:30;;;;;;;20.73;16.10;;;1.50;99.90;;;;;;5011082;28;20204;-73
2020/12/11 04:59:55;;;;;;;19.85;15.90;;;1.50;99.90;;;;;;5002688;28;20034;-72
2020/12/11 05:02:21;;;;;;;20.85;15.75;;;1.50;99.90;;;;;;4993412;28;20384;-71
2020/12/11 05:04:52;;;;;;;18.92;15.77;;;1.40;99.90;;;;;;5000277;28;20022;-71
2020/12/11 05:07:18;;;;;;;19.83;15.15;;;1.30;99.90;;;;;;5000817;28;20062;-71
2020/12/11 05:09:54;;;;;;;22.58;17.30;;;1.30;99.90;;;;;;5001257;28;20087;-73
2020/12/11 05:12:19;;;;;;;21.35;16.23;;;1.30;99.90;;;;;;4993649;28;20037;-73
2020/12/11 05:14:45;;;;;;;20.00;15.77;;;1.30;99.90;;;;;;5008107;28;20101;-73
2020/12/11 05:17:10;;;;;;;19.20;14.75;;;1.30;99.90;;;;;;5006231;28;20042;-74
2020/12/11 05:19:57;;;;;;;23.75;18.20;;;1.30;99.90;;;;;;5003305;28;20022;-71
2020/12/11 05:22:24;;;;;;;22.50;16.45;;;1.30;99.90;;;;;;5003309;28;20064;-72
2020/12/11 05:24:52;;;;;;;21.20;16.60;;;1.30;99.90;;;;;;5002729;28;20033;-73
2020/12/11 05:27:40;;;;;;;24.38;17.40;;;1.20;99.90;;;;;;4992657;28;20107;-71
2020/12/11 05:30:12;;;;;;;21.67;16.15;;;1.20;99.90;;;;;;5008389;28;20111;-72
2020/12/11 05:32:39;;;;;;;23.83;17.13;;;1.10;99.90;;;;;;5039581;23;20042;-73
2020/12/11 05:35:18;;;;;;;25.73;17.20;;;1.10;99.90;;;;;;5032145;28;20068;-73
2020/12/11 05:38:05;;;;;;;20.35;15.73;;;1.10;99.90;;;;;;5021754;28;20018;-73
2020/12/11 05:40:39;;;;;;;24.10;18.38;;;1.00;99.90;;;;;;5001472;28;20505;-72
2020/12/11 05:43:07;;;;;;;22.25;15.70;;;1.00;99.90;;;;;;4989461;28;20015;-72
2020/12/11 05:45:35;;;;;;;22.75;16.88;;;1.00;99.90;;;;;;5010931;28;20153;-73
2020/12/11 05:48:02;;;;;;;23.23;16.05;;;1.00;99.90;;;;;;5000365;28;20054;-74
2020/12/11 05:50:28;;;;;;;22.35;15.70;;;1.00;99.90;;;;;;4999069;28;20027;-73
2020/12/11 05:52:54;;;;;;;25.23;16.33;;;1.00;99.90;;;;;;4984048;28;20102;-73
2020/12/11 05:55:22;;;;;;;21.42;14.60;;;1.10;99.90;;;;;;4988605;28;20076;-73
2020/12/11 05:57:51;;;;;;;20.08;16.13;;;1.10;99.90;;;;;;5006578;28;20026;-73
2020/12/11 06:00:18;;;;;;;22.83;16.38;;;1.10;99.90;;;;;;4979722;28;20077;-74
2020/12/11 06:02:47;;;;;;;21.02;15.32;;;1.00;99.90;;;;;;4977157;28;20018;-73
2020/12/11 06:05:15;;;;;;;21.92;16.83;;;1.10;99.90;;;;;;4977421;28;20114;-73
2020/12/11 06:07:43;;;;;;;23.08;17.52;;;1.10;99.90;;;;;;4960789;28;20027;-72
2020/12/11 06:10:11;;;;;;;27.73;18.02;;;1.00;99.90;;;;;;4978752;28;20499;-72
2020/12/11 06:12:37;;;;;;;22.92;16.45;;;0.90;99.90;;;;;;4977186;28;20368;-73
2020/12/11 06:15:34;;;;;;;22.27;16.35;;;0.90;99.90;;;;;;4977677;28;20034;-72
2020/12/11 06:18:23;;;;;;;22.85;16.08;;;0.90;99.90;;;;;;4990592;28;20030;-73
2020/12/11 06:20:53;;;;;;;20.02;15.27;;;0.90;99.90;;;;;;4988981;28;20109;-73
2020/12/11 06:23:24;;;;;;;25.20;17.40;;;1.10;99.90;;;;;;4989285;28;20397;-74
2020/12/11 06:26:00;;;;;;;21.50;14.55;;;1.20;99.90;;;;;;4987672;28;20037;-73
2020/12/11 06:28:35;;;;;;;20.13;15.38;;;1.30;99.90;;;;;;4983086;28;20045;-73
2020/12/11 06:31:04;;;;;;;20.98;15.25;;;1.30;99.90;;;;;;4991260;28;20034;-74
2020/12/11 06:33:31;;;;;;;24.20;15.95;;;1.30;99.90;;;;;;4984862;28;20117;-73
2020/12/11 06:35:58;;;;;;;23.33;15.02;;;1.30;99.90;;;;;;5003745;28;20076;-74
2020/12/11 06:38:44;;;;;;;21.85;15.27;;;1.20;99.90;;;;;;4989103;28;20053;-74
2020/12/11 06:41:14;;;;;;;21.60;15.23;;;1.30;99.90;;;;;;4996882;28;20023;-72
2020/12/11 06:43:41;;;;;;;21.75;14.60;;;1.20;99.90;;;;;;4991871;28;20015;-73
2020/12/11 06:46:13;;;;;;;22.60;15.57;;;1.10;99.90;;;;;;4992360;28;20164;-72
2020/12/11 06:49:07;;;;;;;23.70;15.15;;;1.20;99.90;;;;;;4993151;28;20027;-73
2020/12/11 06:51:34;;;;;;;22.25;15.48;;;1.10;99.90;;;;;;4989697;28;20023;-72
2020/12/11 06:54:00;;;;;;;25.55;16.67;;;1.10;99.90;;;;;;4985420;28;20030;-73
2020/12/11 06:56:39;;;;;;;26.55;17.17;;;1.10;99.90;;;;;;4982112;28;20030;-72
2020/12/11 06:59:17;;;;;;;25.05;15.55;;;1.20;99.90;;;;;;4988847;28;20041;-73
2020/12/11 07:01:43;;;;;;;22.38;16.08;;;1.30;99.90;;;;;;4991282;28;20027;-73
2020/12/11 07:04:08;;;;;;;23.10;16.05;;;1.50;99.90;;;;;;4980105;28;20078;-73
2020/12/11 07:06:34;;;;;;;18.75;14.35;;;1.50;99.90;;;;;;4978787;28;20138;-73
2020/12/11 07:09:03;;;;;;;21.02;14.50;;;1.40;99.90;;;;;;4988502;28;20069;-74
2020/12/11 07:11:29;;;;;;;16.90;13.23;;;1.50;99.90;;;;;;4993546;28;20034;-73
2020/12/11 07:13:54;;;;;;;20.35;13.90;;;1.50;99.90;;;;;;4981029;28;20039;-73
2020/12/11 07:16:20;;;;;;;18.48;12.90;;;1.50;99.90;;;;;;4976208;28;20072;-73
2020/12/11 07:18:46;;;;;;;19.30;14.27;;;1.50;99.90;;;;;;4975905;28;20042;-73
2020/12/11 07:21:12;;;;;;;19.27;14.43;;;1.60;99.90;;;;;;4976020;28;20114;-73
2020/12/11 07:23:38;;;;;;;19.67;14.07;;;1.70;99.90;;;;;;4976213;28;20497;-73
2020/12/11 07:26:04;;;;;;;17.33;13.82;;;1.60;99.90;;;;;;4989441;28;20504;-74
2020/12/11 07:28:30;;;;;;;20.02;14.10;;;1.60;99.90;;;;;;4982769;28;20512;-74
2020/12/11 07:30:56;;;;;;;20.08;14.50;;;1.50;99.90;;;;;;4975345;28;20043;-74
2020/12/11 07:33:21;;;;;;;23.10;14.80;;;1.60;99.90;;;;;;4986197;28;20031;-73
2020/12/11 07:35:49;;;;;;;18.10;14.13;;;1.50;99.90;;;;;;5006345;28;20118;-74
2020/12/11 07:38:25;;;;;;;19.38;13.65;;;1.40;99.90;;;;;;4992787;28;20444;-73
2020/12/11 07:40:56;;;;;;;19.08;13.88;;;1.40;99.90;;;;;;4983401;28;20104;-74
2020/12/11 07:43:23;;;;;;;18.83;13.95;;;1.30;99.90;;;;;;4975575;28;20109;-73
2020/12/11 07:45:49;;;;;;;18.52;14.70;;;1.30;99.90;;;;;;4975372;28;20587;-73
2020/12/11 07:48:15;;;;;;;20.30;14.98;;;1.30;99.90;;;;;;4983088;28;20038;-73
2020/12/11 07:50:43;;;;;;;18.67;13.57;;;1.40;99.90;;;;;;4975556;28;20077;-74
2020/12/11 07:53:10;;;;;;;21.50;15.57;;;1.40;99.90;;;;;;4963711;28;20085;-72
2020/12/11 07:55:36;;;;;;;19.95;15.20;;;1.30;99.90;;;;;;4986700;28;20037;-74
2020/12/11 07:58:03;;;;;;;20.70;14.65;;;1.30;99.90;;;;;;4994914;28;20031;-73
2020/12/11 08:00:34;;;;;;;25.02;15.98;;;1.30;99.90;;;;;;4994203;28;20109;-73
2020/12/11 08:03:06;;;;;;;;;;;1.30;99.90;;;;;;4992065;28;20033;-73
2020/12/11 08:05:33;;;;;;;20.65;13.93;;;1.40;99.90;;;;;;4988774;28;19992;-74
2020/12/11 08:07:59;;;;;;;23.83;15.23;;;1.40;99.90;;;;;;4975038;28;20026;-73
2020/12/11 08:10:38;;;;;;;18.63;13.48;;;1.50;99.90;;;;;;4982340;28;20042;-73
2020/12/11 08:13:23;;;;;;;20.20;14.93;;;1.60;99.90;;;;;;4995632;28;20030;-72
2020/12/11 08:15:48;;;;;;;23.05;14.40;;;1.80;99.90;;;;;;4988540;28;20508;-73
2020/12/11 08:18:20;;;;;;;18.25;14.23;;;1.80;99.90;;;;;;4994981;28;20092;-74
2020/12/11 08:20:54;;;;;;;18.98;14.45;;;1.90;99.90;;;;;;4990524;28;20026;-73
2020/12/11 08:23:21;;;;;;;18.33;14.30;;;2.00;99.90;;;;;;4989752;28;20022;-72
2020/12/11 08:25:46;;;;;;;20.77;14.27;;;2.10;99.90;;;;;;4984378;28;20085;-72
2020/12/11 08:28:13;;;;;;;19.63;14.93;;;2.10;99.90;;;;;;4992996;28;20030;-73
2020/12/11 08:44:26;;;;;;;19.80;14.73;;;2.40;99.90;;;;;;5014310;28;20033;-73
2020/12/11 08:50:49;;;;;;;22.40;14.48;;;2.60;99.90;;;;;;4990897;28;20040;-73
2020/12/11 08:52:40;;;;;;;18.55;13.68;;;2.70;99.90;;;;;;5009110;28;20034;-72
2020/12/11 08:55:06;;;;;;;18.77;14.60;;;2.70;99.90;;;;;;5013679;28;20033;-73
2020/12/11 08:57:33;;;;;;;18.33;13.43;;;2.70;99.90;;;;;;5012618;28;20026;-73
2020/12/11 08:59:59;;;;;;;17.77;14.23;;;2.70;99.90;;;;;;5014859;28;20501;-73
2020/12/11 09:02:26;;;;;;;18.52;14.43;;;2.70;99.90;;;;;;5017120;28;20290;-73
2020/12/11 09:04:51;;;;;;;21.48;14.13;;;3.10;99.90;;;;;;5012890;28;20032;-73
2020/12/11 09:07:17;;;;;;;21.65;15.00;;;3.00;99.90;;;;;;5013461;28;20076;-74
2020/12/11 09:09:43;;;;;;;16.88;13.02;;;2.90;99.90;;;;;;5024897;28;20077;-74
2020/12/11 09:12:08;;;;;;;22.67;15.63;;;2.90;99.90;;;;;;5026344;28;20075;-73
2020/12/11 09:14:34;;;;;;;17.83;14.20;;;3.10;99.90;;;;;;5018635;28;20439;-73
2020/12/11 09:17:00;;;;;;;20.30;13.85;;;3.30;99.90;;;;;;5018213;28;20018;-74
2020/12/11 09:19:26;;;;;;;22.35;14.25;;;3.40;99.90;;;;;;5018405;28;20400;-74
2020/12/11 09:21:51;;;;;;;18.83;14.40;;;3.40;99.90;;;;;;5018701;28;20037;-74
2020/12/11 09:24:17;;;;;;;23.90;15.43;;;3.20;99.90;;;;;;5017384;28;20471;-74
2020/12/11 09:26:43;;;;;;;19.40;15.10;;;3.10;99.90;;;;;;5015700;28;20026;-73
2020/12/11 09:29:13;;;;;;;21.00;14.07;;;3.20;99.90;;;;;;5017445;28;20053;-72
2020/12/11 09:31:41;;;;;;;21.67;15.32;;;3.10;99.90;;;;;;5016545;28;20040;-72
2020/12/11 09:34:09;;;;;;;23.60;14.95;;;3.30;99.90;;;;;;5017324;28;20481;-74
2020/12/11 09:36:34;;;;;;;18.83;14.02;;;3.20;99.90;;;;;;5009918;28;20099;-72
2020/12/11 09:39:00;;;;;;;26.48;14.98;;;3.10;99.90;;;;;;5019913;28;20018;-74
2020/12/11 09:41:30;;;;;;;22.52;13.55;;;3.10;99.90;;;;;;5018442;28;20033;-73
2020/12/11 09:46:31;;;;;;;22.35;15.77;;;3.20;99.90;;;;;;5017786;28;20032;-73
2020/12/11 09:56:35;;;;;;;21.55;13.30;;;3.50;99.90;;;;;;5018181;28;20057;-74
2020/12/11 09:59:04;;;;;;;19.88;11.98;;;3.80;99.90;;;;;;5017401;28;20477;-73
2020/12/11 10:04:14;;;;;;;21.85;13.02;;;3.80;99.90;;;;;;5016507;28;20503;-73
2020/12/11 10:06:40;;;;;;;25.30;13.95;;;4.30;99.90;;;;;;5016652;28;20026;-73
2020/12/11 10:09:05;;;;;;;17.60;12.80;;;4.20;99.90;;;;;;5016290;28;20096;-74
2020/12/11 10:11:31;;;;;;;15.30;12.50;;;4.10;99.90;;;;;;5000618;28;20026;-73
2020/12/11 10:16:41;;;;;;;15.98;11.77;;;4.10;99.90;;;;;;5003116;28;20083;-74
2020/12/11 10:19:06;;;;;;;16.02;11.77;;;4.10;99.90;;;;;;5029951;28;20026;-73
2020/12/11 10:21:32;;;;;;;16.30;12.60;;;4.10;99.90;;;;;;5028789;28;20030;-73
2020/12/11 10:23:58;;;;;;;17.27;13.05;;;4.10;99.90;;;;;;5003348;28;20033;-72
2020/12/11 10:26:23;;;;;;;32.03;14.43;;;4.20;99.90;;;;;;5020178;28;20030;-73
2020/12/11 10:28:49;;;;;;;14.45;12.32;;;4.40;99.90;;;;;;5031998;28;20041;-74
2020/12/11 10:31:14;;;;;;;22.73;14.02;;;4.20;99.90;;;;;;5033718;28;20048;-73
2020/12/11 10:33:40;;;;;;;19.60;13.52;;;4.10;99.90;;;;;;5029739;28;20060;-72
2020/12/11 10:36:06;;;;;;;23.73;14.98;;;4.30;99.90;;;;;;5006460;28;20027;-72
2020/12/11 10:38:31;;;;;;;21.55;13.27;;;4.30;99.90;;;;;;5002167;28;20030;-73
2020/12/11 10:40:57;;;;;;;19.67;13.15;;;4.40;99.90;;;;;;5001298;28;20636;-72
2020/12/11 10:43:22;;;;;;;19.13;14.10;;;4.30;99.90;;;;;;5008660;28;20061;-73
2020/12/11 10:45:48;;;;;;;14.43;10.65;;;4.30;99.90;;;;;;5017477;28;20022;-74
2020/12/11 10:48:13;;;;;;;16.50;11.65;;;4.70;99.90;;;;;;5023793;28;20057;-72
2020/12/11 10:50:39;;;;;;;15.10;11.48;;;4.70;99.90;;;;;;5005890;28;20039;-73
2020/12/11 10:53:05;;;;;;;14.10;11.30;;;4.50;99.90;;;;;;5027898;28;20109;-73
2020/12/11 10:55:30;;;;;;;16.92;10.00;;;4.50;99.90;;;;;;5017845;28;20105;-73
2020/12/11 10:57:56;;;;;;;13.52;10.57;;;4.60;99.90;;;;;;4988725;28;20046;-73
2020/12/11 11:00:21;;;;;;;17.45;10.45;;;4.60;99.90;;;;;;4988085;28;20109;-73
2020/12/11 11:02:47;;;;;;;11.98;10.30;;;4.60;99.90;;;;;;4992043;28;20073;-73
2020/12/11 11:05:13;;;;;;;15.02;9.68;;;4.60;99.90;;;;;;4984895;28;20474;-73
2020/12/11 11:07:39;;;;;;;14.88;8.88;;;4.60;99.90;;;;;;4987321;28;20466;-74
2020/12/11 11:12:34;;;;;;;11.57;9.55;;;4.60;99.90;;;;;;4998214;28;20110;-73
2020/12/11 11:26:29;;;;;;;13.07;9.43;;;4.50;99.90;;;;;;4997017;28;20086;-73
2020/12/11 11:28:55;;;;;;;17.98;9.82;;;4.40;99.90;;;;;;4980352;28;20035;-73
2020/12/11 11:31:20;;;;;;;15.02;9.90;;;4.40;99.90;;;;;;4977408;28;20113;-73
2020/12/11 11:33:46;;;;;;;13.05;10.68;;;4.60;99.90;;;;;;4989072;28;20042;-75
2020/12/11 11:36:12;;;;;;;13.55;9.50;;;4.60;99.90;;;;;;5007536;28;20030;-74
2020/12/11 11:38:37;;;;;;;12.20;9.65;;;4.50;99.90;;;;;;5008558;28;20483;-72
2020/12/11 11:41:03;;;;;;;11.90;9.05;;;4.40;99.90;;;;;;4976806;28;20023;-73
2020/12/11 11:46:20;;;;;;;11.70;9.93;;;4.40;99.90;;;;;;4970597;28;20102;-73
2020/12/11 11:48:46;;;;;;;14.85;9.98;;;4.50;99.90;;;;;;5000343;28;20034;-71
2020/12/11 11:51:27;;;;;;;12.45;10.30;;;4.60;99.90;;;;;;5018327;28;20026;-74
2020/12/11 11:53:52;;;;;;;12.73;10.60;;;4.60;99.90;;;;;;4991642;28;20058;-72
2020/12/11 11:56:21;;;;;;;11.63;10.30;;;4.60;99.90;;;;;;4995800;28;20026;-74
2020/12/11 11:58:48;;;;;;;11.75;9.15;;;4.60;99.90;;;;;;5006807;28;20069;-74
2020/12/11 12:01:14;;;;;;;14.55;10.10;;;4.60;99.90;;;;;;4979747;28;20081;-74
2020/12/11 12:03:39;;;;;;;12.63;10.40;;;4.60;99.90;;;;;;4983705;28;20030;-72
2020/12/11 12:06:06;;;;;;;12.38;10.32;;;4.80;99.90;;;;;;4996772;28;20038;-72
2020/12/11 12:08:31;;;;;;;14.68;11.00;;;4.80;99.90;;;;;;4976794;28;20037;-73
2020/12/11 12:10:57;;;;;;;10.40;9.18;;;4.90;99.90;;;;;;4975901;28;20050;-72
2020/12/11 12:13:22;;;;;;;15.38;9.75;;;4.70;99.90;;;;;;4975646;28;20363;-73
2020/12/11 12:15:50;;;;;;;13.30;10.82;;;4.70;99.90;;;;;;4976323;28;20051;-72
2020/12/11 12:18:16;;;;;;;13.02;11.18;;;4.80;99.90;;;;;;4994919;28;20445;-72
2020/12/11 12:20:59;;;;;;;13.25;10.45;;;4.80;99.90;;;;;;4995021;28;20022;-73
2020/12/11 12:28:54;;;;;;;13.68;10.18;;;4.90;99.90;;;;;;4977610;28;20500;-73
2020/12/11 12:31:26;;;;;;;12.88;10.88;;;4.80;99.90;;;;;;4991154;28;20031;-75
2020/12/11 12:44:42;;;;;;;12.52;10.55;;;5.10;99.90;;;;;;5007706;28;20025;-73
2020/12/11 12:47:07;;;;;;;13.32;10.93;;;5.20;99.90;;;;;;4962513;28;20121;-72
2020/12/11 12:49:33;;;;;;;15.50;11.00;;;5.20;99.90;;;;;;4979263;28;20033;-72
2020/12/11 12:51:58;;;;;;;17.83;13.30;;;5.10;99.90;;;;;;4988127;28;20066;-73
2020/12/11 12:54:25;;;;;;;15.52;12.02;;;5.10;99.90;;;;;;4983864;28;20040;-73
2020/12/11 12:56:55;;;;;;;13.68;10.40;;;5.10;99.90;;;;;;4977394;28;20039;-73
2020/12/11 12:59:49;;;;;;;13.50;11.05;;;5.10;99.90;;;;;;4980210;28;20102;-72
2020/12/11 13:02:27;;;;;;;13.65;10.77;;;5.00;99.90;;;;;;4989612;28;20094;-72
2020/12/11 13:05:07;;;;;;;19.63;11.35;;;5.00;99.90;;;;;;4993707;28;20027;-73
2020/12/11 13:07:33;;;;;;;15.17;12.17;;;5.20;99.90;;;;;;4994905;28;20041;-73
2020/12/11 13:09:59;;;;;;;16.30;11.38;;;5.10;99.90;;;;;;5000241;28;20310;-74
2020/12/11 13:12:25;;;;;;;15.55;10.90;;;5.30;99.90;;;;;;4981400;28;20062;-72
2020/12/11 13:14:51;;;;;;;15.80;14.07;;;5.50;99.90;;;;;;4984429;28;20023;-72
2020/12/11 13:17:16;;;;;;;17.77;13.48;;;5.20;99.90;;;;;;4989355;28;20034;-74
2020/12/11 13:19:42;;;;;;;20.88;13.20;;;5.00;99.90;;;;;;4978035;28;20054;-72
2020/12/11 13:27:25;;;;;;;20.25;13.40;;;5.20;99.90;;;;;;5008589;28;20065;-72
2020/12/11 13:29:51;;;;;;;19.20;13.30;;;5.10;99.90;;;;;;5009012;28;20019;-72
2020/12/11 13:32:21;;;;;;;16.17;11.57;;;5.20;99.90;;;;;;5012413;28;20043;-72
2020/12/11 13:34:47;;;;;;;16.48;10.30;;;5.20;99.90;;;;;;5013423;28;20045;-72
2020/12/11 13:37:13;;;;;;;10.60;9.35;;;5.10;99.90;;;;;;4999915;28;20075;-74
2020/12/11 13:39:39;;;;;;;13.73;10.98;;;5.10;99.90;;;;;;4987629;28;20026;-75
2020/12/11 13:42:05;;;;;;;15.50;11.30;;;5.20;99.90;;;;;;4974538;28;20540;-73
2020/12/11 13:44:31;;;;;;;13.18;10.30;;;5.20;99.90;;;;;;4984799;28;20031;-73
2020/12/11 13:46:57;;;;;;;15.70;10.13;;;5.20;99.90;;;;;;4975073;28;20027;-73
2020/12/11 13:49:23;;;;;;;16.00;11.57;;;5.00;99.90;;;;;;4976696;28;20538;-72
2020/12/11 13:51:49;;;;;;;16.75;11.63;;;5.00;99.90;;;;;;4976771;28;20034;-73